TimeCST,TemperatureF,Dew PointF,Humidity,Sea Level PressureIn,VisibilityMPH,Wind Direction,Wind SpeedMPH,Gust SpeedMPH,PrecipitationIn,Events,Conditions,WindDirDegrees,DateUTC
12:15 AM,39.0,28.0,65,30.33,10.0,SW,6.9,-,N/A,,Clear,220,2012-12-05 06:15:00
12:35 AM,38.1,27.5,66,30.33,10.0,SW,8.1,-,N/A,,Clear,220,2012-12-05 06:35:00
12:55 AM,38.5,28.0,66,30.32,10.0,SSW,6.9,-,N/A,,Clear,210,2012-12-05 06:55:00
1:15 AM,38.3,27.9,66,30.32,10.0,SW,6.9,-,N/A,,Clear,220,2012-12-05 07:15:00
1:55 AM,37.0,27.3,68,30.32,10.0,SW,4.6,-,N/A,,Clear,220,2012-12-05 07:55:00
2:15 AM,36.5,27.1,69,30.32,10.0,WSW,6.9,-,N/A,,Clear,240,2012-12-05 08:15:00
2:35 AM,37.0,27.0,67,30.32,10.0,WSW,4.6,-,N/A,,Clear,240,2012-12-05 08:35:00
2:55 AM,35.8,26.4,69,30.31,10.0,SW,3.5,-,N/A,,Clear,230,2012-12-05 08:55:00
3:15 AM,35.2,25.7,68,30.31,10.0,Calm,Calm,-,N/A,,Clear,0,2012-12-05 09:15:00
3:35 AM,32.9,24.8,72,30.30,10.0,Calm,Calm,-,N/A,,Clear,0,2012-12-05 09:35:00
3:55 AM,33.6,25.3,72,30.30,10.0,Calm,Calm,-,N/A,,Clear,0,2012-12-05 09:55:00
4:15 AM,33.1,24.4,71,30.30,10.0,West,4.6,-,N/A,,Clear,270,2012-12-05 10:15:00
4:35 AM,32.5,24.6,73,30.30,10.0,West,6.9,-,N/A,,Clear,280,2012-12-05 10:35:00
4:55 AM,33.8,25.5,72,30.29,10.0,West,4.6,-,N/A,,Clear,280,2012-12-05 10:55:00
5:15 AM,32.9,25.3,74,30.29,10.0,WNW,5.8,-,N/A,,Clear,290,2012-12-05 11:15:00
5:35 AM,33.3,25.7,74,30.29,10.0,West,3.5,-,N/A,,Clear,280,2012-12-05 11:35:00
5:55 AM,32.5,25.2,74,30.29,10.0,Calm,Calm,-,N/A,,Clear,0,2012-12-05 11:55:00
6:15 AM,32.7,25.2,74,30.29,10.0,Calm,Calm,-,N/A,,Clear,0,2012-12-05 12:15:00
6:35 AM,32.9,25.2,73,30.29,10.0,Calm,Calm,-,N/A,,Clear,0,2012-12-05 12:35:00
6:55 AM,32.0,24.1,73,30.30,10.0,West,4.6,-,N/A,,Clear,260,2012-12-05 12:55:00
8:35 AM,35.4,25.7,68,30.31,10.0,Calm,Calm,-,N/A,,Clear,0,2012-12-05 14:35:00
8:55 AM,37.6,27.3,66,30.31,10.0,Calm,Calm,-,N/A,,Clear,0,2012-12-05 14:55:00
9:15 AM,39.9,28.9,65,30.30,10.0,Calm,Calm,-,N/A,,Clear,0,2012-12-05 15:15:00
9:35 AM,42.6,30.2,61,30.30,10.0,Calm,Calm,-,N/A,,Clear,0,2012-12-05 15:35:00
10:15 AM,48.0,32.0,54,30.29,10.0,Calm,Calm,-,N/A,,Clear,0,2012-12-05 16:15:00
10:35 AM,49.3,32.2,52,30.29,10.0,Calm,Calm,-,N/A,,Clear,0,2012-12-05 16:35:00
10:55 AM,51.8,32.5,48,30.27,10.0,East,3.5,-,N/A,,Clear,80,2012-12-05 16:55:00
11:15 AM,54.5,32.7,44,30.26,10.0,ESE,3.5,-,N/A,,Clear,120,2012-12-05 17:15:00
11:35 AM,55.6,32.5,42,30.25,10.0,East,3.5,-,N/A,,Clear,90,2012-12-05 17:35:00
12:35 PM,60.4,33.6,37,30.20,10.0,East,3.5,-,N/A,,Clear,80,2012-12-05 18:35:00
2:15 PM,68.2,34.9,29,30.12,10.0,SE,3.5,-,N/A,,Clear,130,2012-12-05 20:15:00
2:55 PM,69.8,34.3,27,30.08,10.0,East,3.5,-,N/A,,Clear,100,2012-12-05 20:55:00
3:15 PM,71.4,34.3,26,30.07,10.0,East,3.5,-,N/A,,Clear,100,2012-12-05 21:15:00
3:35 PM,71.1,34.0,26,30.06,10.0,Calm,Calm,-,N/A,,Clear,0,2012-12-05 21:35:00
4:15 PM,71.8,34.2,25,30.04,10.0,ESE,5.8,-,N/A,,Clear,110,2012-12-05 22:15:00
4:35 PM,71.1,34.2,26,30.04,10.0,ESE,6.9,-,N/A,,Clear,110,2012-12-05 22:35:00
4:55 PM,70.2,34.2,27,30.04,10.0,East,4.6,-,N/A,,Clear,100,2012-12-05 22:55:00
5:15 PM,68.0,34.0,28,30.03,10.0,ESE,3.5,-,N/A,,Clear,120,2012-12-05 23:15:00
5:35 PM,67.1,34.2,30,30.03,10.0,Calm,Calm,-,N/A,,Clear,0,2012-12-05 23:35:00
5:55 PM,65.3,34.0,31,30.03,10.0,East,4.6,-,N/A,,Clear,100,2012-12-05 23:55:00
6:15 PM,62.2,33.3,34,30.03,10.0,ESE,3.5,-,N/A,,Clear,110,2012-12-06 00:15:00
6:35 PM,60.1,32.9,36,30.02,10.0,East,3.5,-,N/A,,Clear,100,2012-12-06 00:35:00
6:55 PM,58.3,32.4,38,30.02,10.0,ESE,4.6,-,N/A,,Clear,120,2012-12-06 00:55:00
7:15 PM,56.7,32.9,41,30.02,10.0,ESE,4.6,-,N/A,,Clear,120,2012-12-06 01:15:00
7:35 PM,55.9,33.3,42,30.02,10.0,SSE,4.6,-,N/A,,Clear,150,2012-12-06 01:35:00
8:35 PM,50.2,32.0,50,30.02,10.0,SW,5.8,-,N/A,,Clear,220,2012-12-06 02:35:00
8:55 PM,48.4,30.7,51,30.02,10.0,SW,6.9,-,N/A,,Clear,230,2012-12-06 02:55:00
9:15 PM,47.8,30.9,52,30.01,10.0,SW,6.9,-,N/A,,Clear,220,2012-12-06 03:15:00
9:35 PM,46.8,30.7,54,30.00,10.0,SW,8.1,-,N/A,,Clear,230,2012-12-06 03:35:00
9:55 PM,46.9,30.6,53,30.00,10.0,West,6.9,-,N/A,,Clear,260,2012-12-06 03:55:00
10:15 PM,44.8,29.8,56,30.00,10.0,West,5.8,-,N/A,,Clear,270,2012-12-06 04:15:00
10:35 PM,46.6,30.7,54,29.99,10.0,West,5.8,-,N/A,,Clear,270,2012-12-06 04:35:00
10:55 PM,44.2,30.0,57,29.99,10.0,West,3.5,-,N/A,,Clear,280,2012-12-06 04:55:00
11:15 PM,44.4,29.5,56,29.98,10.0,West,5.8,-,N/A,,Clear,270,2012-12-06 05:15:00
11:35 PM,41.4,27.9,59,29.98,10.0,South,3.5,-,N/A,,Clear,190,2012-12-06 05:35:00
11:55 PM,39.6,27.5,62,29.98,10.0,SE,3.5,-,N/A,,Clear,140,2012-12-06 05:55:00